createdAt,value
2022-11-16T00:04:06.980Z,74.10
2022-11-16T00:14:12.186Z,74.23
2022-11-16T00:24:16.733Z,73.91
2022-11-16T00:34:22.658Z,74.32
2022-11-16T00:44:26.065Z,74.67
2022-11-16T00:54:30.696Z,74.74
2022-11-16T01:04:34.411Z,75.81
2022-11-16T01:14:40.829Z,76.42
2022-11-16T01:24:45.468Z,76.87
2022-11-16T01:34:50.965Z,76.78
2022-11-16T01:45:04.339Z,77.18
2022-11-16T01:55:10.149Z,77.43
2022-11-16T02:05:17.051Z,76.99
2022-11-16T02:15:28.028Z,77.72
2022-11-16T02:25:39.587Z,78.92
2022-11-16T02:35:48.666Z,79.54
2022-11-16T02:45:55.872Z,79.00
2022-11-16T02:56:00.533Z,79.50
2022-11-16T03:06:07.707Z,79.88
2022-11-16T03:16:17.625Z,79.55
2022-11-16T03:26:24.489Z,78.01
2022-11-16T03:36:32.635Z,78.51
2022-11-16T03:46:35.776Z,79.37
2022-11-16T03:56:40.349Z,79.82
2022-11-16T04:07:01.593Z,78.95
2022-11-16T04:17:29.546Z,79.11
2022-11-16T04:27:52.064Z,78.42
2022-11-16T04:37:58.971Z,79.87
2022-11-16T04:48:02.288Z,80.80
2022-11-16T04:58:09.604Z,80.76
2022-11-16T05:08:24.298Z,80.07
2022-11-16T05:18:28.864Z,79.73
2022-11-16T05:28:32.501Z,78.60
2022-11-16T05:38:37.409Z,79.36
2022-11-16T05:48:40.654Z,78.85
2022-11-16T05:58:46.497Z,78.37
2022-11-16T06:08:49.492Z,76.96
2022-11-16T06:18:53.871Z,76.76
2022-11-16T06:28:57.377Z,76.86
2022-11-16T06:39:02.028Z,76.56
2022-11-16T06:49:04.979Z,76.83
2022-11-16T06:59:09.591Z,75.51
2022-11-16T07:09:15.766Z,72.93
2022-11-16T07:19:20.635Z,70.73
2022-11-16T07:29:24.758Z,69.31
2022-11-16T07:39:29.704Z,67.28
2022-11-16T07:49:32.849Z,63.68
2022-11-16T07:59:37.597Z,60.31
2022-11-16T08:09:41.867Z,55.35
2022-11-16T08:19:46.548Z,52.80
2022-11-16T08:29:49.507Z,53.96
2022-11-16T08:39:54.022Z,61.99
2022-11-16T08:49:57.029Z,64.02
2022-11-16T09:00:01.700Z,63.40
2022-11-16T09:10:05.567Z,59.35
2022-11-16T09:20:10.743Z,60.19
2022-11-16T09:30:14.659Z,59.33
2022-11-16T09:40:19.538Z,60.82
2022-11-16T09:50:32.681Z,60.65
2022-11-16T10:00:41.877Z,61.27
2022-11-16T10:10:58.704Z,61.45
2022-11-16T10:21:28.662Z,60.89
2022-11-16T10:31:51.880Z,61.80
2022-11-16T10:42:07.703Z,61.39
2022-11-16T10:52:11.317Z,61.63
2022-11-16T11:02:35.120Z,60.63
2022-11-16T11:12:38.402Z,61.60
2022-11-16T11:22:49.986Z,61.76
2022-11-16T11:32:53.515Z,60.49
2022-11-16T11:43:00.036Z,60.77
2022-11-16T11:53:07.255Z,61.91
2022-11-16T12:03:43.331Z,62.00
2022-11-16T12:14:10.082Z,62.50
2022-11-16T12:24:35.430Z,62.48
2022-11-16T12:34:52.895Z,63.86
2022-11-16T12:45:19.407Z,63.52
2022-11-16T12:55:32.855Z,64.23
2022-11-16T13:05:54.039Z,63.49
2022-11-16T13:15:58.564Z,64.74
2022-11-16T13:26:10.729Z,64.43
2022-11-16T13:36:45.601Z,65.17
2022-11-16T13:46:56.873Z,65.73
2022-11-16T13:57:03.583Z,65.95
2022-11-16T14:07:29.622Z,65.82
2022-11-16T14:17:58.113Z,66.41
2022-11-16T14:28:13.632Z,66.23
2022-11-16T14:38:28.047Z,65.76
2022-11-16T14:48:33.746Z,65.87
2022-11-16T14:58:37.462Z,66.29
2022-11-16T15:08:48.854Z,66.32
2022-11-16T15:18:59.632Z,66.29
2022-11-16T15:29:13.540Z,67.75
2022-11-16T15:39:20.094Z,69.23
2022-11-16T15:49:30.704Z,69.92
2022-11-16T15:59:36.668Z,70.39
2022-11-16T16:09:41.759Z,70.90
2022-11-16T16:19:47.856Z,70.85
2022-11-16T16:29:56.027Z,72.18
2022-11-16T16:40:00.808Z,72.74
2022-11-16T16:50:05.961Z,72.39
2022-11-16T17:00:12.244Z,73.19
2022-11-16T17:10:17.382Z,73.29
2022-11-16T17:20:20.703Z,73.78
2022-11-16T17:30:25.483Z,73.28
2022-11-16T17:40:28.376Z,73.72
2022-11-16T17:50:36.072Z,73.59
2022-11-16T18:00:40.373Z,73.64
2022-11-16T18:10:45.550Z,73.06
2022-11-16T18:20:51.800Z,71.81
2022-11-16T18:31:03.254Z,70.92
2022-11-16T18:41:07.909Z,70.78
2022-11-16T18:51:12.593Z,70.44
2022-11-16T19:01:17.823Z,70.58
2022-11-16T19:11:26.642Z,71.54
2022-11-16T19:21:29.774Z,72.20
2022-11-16T19:31:34.385Z,71.78
2022-11-16T19:41:37.453Z,71.79
2022-11-16T19:51:41.927Z,72.21
2022-11-16T20:01:44.860Z,72.10
2022-11-16T20:11:49.276Z,71.68
2022-11-16T20:21:53.809Z,71.53
2022-11-16T20:31:58.433Z,71.38
2022-11-16T20:42:01.301Z,72.13
2022-11-16T20:52:09.775Z,72.67
2022-11-16T21:02:12.887Z,73.85
2022-11-16T21:12:42.653Z,73.98
2022-11-16T21:22:48.374Z,74.40
2022-11-16T21:32:53.022Z,75.11
2022-11-16T21:42:56.379Z,75.23
2022-11-16T21:53:00.951Z,75.52
2022-11-16T22:03:06.249Z,75.66
2022-11-16T22:13:10.932Z,75.03
2022-11-16T22:23:21.461Z,75.07
2022-11-16T22:33:33.189Z,74.95
2022-11-16T22:43:37.862Z,75.13
2022-11-16T22:53:42.790Z,75.98
2022-11-16T23:03:46.042Z,76.50
2022-11-16T23:14:10.060Z,75.17
2022-11-16T23:24:33.937Z,75.12
2022-11-16T23:34:41.225Z,75.10
2022-11-16T23:44:44.490Z,75.40
2022-11-16T23:54:49.370Z,74.67
